Nappanee, Indiana
Current Conditions -  °F | °C
As of 9:53 PM on Saturday 25 Oct 2014 (Local Time) from KGSH Reporting Station
Clear Clear  
Wind Chill: 51°   Ceiling: Unl
Heat Index: 51°   Visibility: 10mi
Dew Point: 38°   Wind: 8mph
Humidity: 61%   Direction: 290°WNW
Pressure: 29.9"   Gusts: NA
Location:  41.44°N, 86°W
Report Text: KGSH 260153Z AUTO 29007KT 10SM CLR 11/03 A2990 RMK AO2 SLP126 T01060033
Loading
Personal Weather Stations






























Interactive Weather Map
Tropical Storm Tracking
New forecast layout! Learn more

10-Day Weather Forecast

Advertisements
Track Severe Weather on mobile